Estación Meteorológica Peña el Pijo (Robertgarden) [ 06/14/24 09:50:35 CEST ]

Fecha Hora Presion(HPa) Temp (°C) Humedad % Rocio (°C) Viento ( m/s) Direccion Lluvia 1Hora(mm) Lluvia 24H(mm) LLuvia Total(mm)
2009-Aug-04 01:01:18 1014.800 17.8 66 11.3         336.18
2009-Aug-04 02:01:17 1014.900 16.5 69 10.8         336.18
2009-Aug-04 03:03:26 1014.700 15.8 73 11.0         336.18
2009-Aug-04 04:01:11 1014.500 14.7 75 10.3         336.18
2009-Aug-04 05:01:16 1014.700 13.8 78 10.0         336.18
2009-Aug-04 06:01:15 1014.600 13.2 81 10.0         336.18
2009-Aug-04 07:01:12 1014.800 12.4 83 9.6         336.18
2009-Aug-04 08:01:13 1014.900 12.9 86 10.6         336.18
2009-Aug-04 09:32:02 1015.000 21.3 63 14.0         336.18
2009-Aug-04 10:01:16 1015.100 24.1 57 15.1         336.18
2009-Aug-04 11:01:12 1014.900 27.8 47 15.4         336.18
2009-Aug-04 12:01:16 1014.800 31.9 32 13.1         336.18
2009-Aug-04 13:01:13 1014.700 34.1 28 12.9         336.18
2009-Aug-04 14:01:16 1014.300 34.9 26 12.3         336.18
2009-Aug-04 15:01:19 1014.100 35.8 24 11.9 0.6 NNE     336.18
2009-Aug-04 16:01:17 1013.600 35.6 24 11.7         336.18
2009-Aug-04 17:01:42 1013.300 35.9 24 11.9 1.8 NE     336.18
2009-Aug-04 18:01:19 1013.200 32.8 30 13.0 1.2 NE     336.18
2009-Aug-04 19:01:13 1013.100 32.5 31 13.2 1.9 ENE     336.18
2009-Aug-04 20:01:14 1012.900 30.2 38 14.3         336.18
2009-Aug-04 21:01:14 1013.600 27.3 47 14.9         336.18
2009-Aug-04 22:01:17 1013.900 25.4 51 14.5         336.18
2009-Aug-04 23:01:14 1014.800 24.3 56 14.9         336.18

Temperatura Máxima:35°    Temperatura Mínima:12°
Presión Máxima:1015.100 Hpa    Presión Mínima:1012.900 Hpa


Volver